sensor_id;sensor_type;location;lat;lon;timestamp;P1;durP1;ratioP1;P2;durP2;ratioP2
42598;SDS011;28225;42.714;23.860;2022-11-15T00:01:37;27.55;;;14.80;;
42598;SDS011;28225;42.714;23.860;2022-11-15T00:04:03;24.33;;;14.07;;
42598;SDS011;28225;42.714;23.860;2022-11-15T00:06:29;25.35;;;14.60;;
42598;SDS011;28225;42.714;23.860;2022-11-15T00:08:55;29.65;;;16.42;;
42598;SDS011;28225;42.714;23.860;2022-11-15T00:11:23;53.22;;;25.27;;
42598;SDS011;28225;42.714;23.860;2022-11-15T00:13:48;28.92;;;15.27;;
42598;SDS011;28225;42.714;23.860;2022-11-15T00:16:14;41.83;;;20.05;;
42598;SDS011;28225;42.714;23.860;2022-11-15T00:18:39;51.35;;;24.38;;
42598;SDS011;28225;42.714;23.860;2022-11-15T00:21:06;51.58;;;27.73;;
42598;SDS011;28225;42.714;23.860;2022-11-15T00:23:34;49.08;;;23.83;;
42598;SDS011;28225;42.714;23.860;2022-11-15T00:25:59;60.75;;;29.17;;
42598;SDS011;28225;42.714;23.860;2022-11-15T00:28:25;73.20;;;34.17;;
42598;SDS011;28225;42.714;23.860;2022-11-15T00:30:51;64.35;;;32.28;;
42598;SDS011;28225;42.714;23.860;2022-11-15T00:33:16;51.28;;;27.02;;
42598;SDS011;28225;42.714;23.860;2022-11-15T00:35:42;31.55;;;17.63;;
42598;SDS011;28225;42.714;23.860;2022-11-15T00:38:07;30.40;;;16.33;;
42598;SDS011;28225;42.714;23.860;2022-11-15T00:40:35;52.55;;;27.95;;
42598;SDS011;28225;42.714;23.860;2022-11-15T00:43:01;54.90;;;27.67;;
42598;SDS011;28225;42.714;23.860;2022-11-15T00:45:26;58.33;;;32.20;;
42598;SDS011;28225;42.714;23.860;2022-11-15T00:47:52;56.45;;;24.40;;
42598;SDS011;28225;42.714;23.860;2022-11-15T00:50:18;63.40;;;23.25;;
42598;SDS011;28225;42.714;23.860;2022-11-15T00:52:43;60.55;;;21.73;;
42598;SDS011;28225;42.714;23.860;2022-11-15T00:55:18;48.20;;;22.17;;
42598;SDS011;28225;42.714;23.860;2022-11-15T00:57:44;56.65;;;20.95;;
42598;SDS011;28225;42.714;23.860;2022-11-15T01:00:10;31.73;;;17.02;;
42598;SDS011;28225;42.714;23.860;2022-11-15T01:02:35;33.85;;;17.83;;
42598;SDS011;28225;42.714;23.860;2022-11-15T01:05:01;26.52;;;15.85;;
42598;SDS011;28225;42.714;23.860;2022-11-15T01:07:27;36.70;;;17.27;;
42598;SDS011;28225;42.714;23.860;2022-11-15T01:09:52;52.47;;;16.40;;
42598;SDS011;28225;42.714;23.860;2022-11-15T01:12:17;35.40;;;16.60;;
42598;SDS011;28225;42.714;23.860;2022-11-15T01:14:43;30.25;;;14.90;;
42598;SDS011;28225;42.714;23.860;2022-11-15T01:17:08;30.42;;;15.48;;
42598;SDS011;28225;42.714;23.860;2022-11-15T01:19:34;30.80;;;16.70;;
42598;SDS011;28225;42.714;23.860;2022-11-15T01:21:59;31.63;;;16.77;;
42598;SDS011;28225;42.714;23.860;2022-11-15T01:24:25;26.77;;;16.58;;
42598;SDS011;28225;42.714;23.860;2022-11-15T01:26:50;32.30;;;15.55;;
42598;SDS011;28225;42.714;23.860;2022-11-15T01:29:16;27.20;;;14.55;;
42598;SDS011;28225;42.714;23.860;2022-11-15T01:31:41;24.85;;;15.20;;
42598;SDS011;28225;42.714;23.860;2022-11-15T01:34:06;20.65;;;12.27;;
42598;SDS011;28225;42.714;23.860;2022-11-15T01:36:32;28.70;;;15.45;;
42598;SDS011;28225;42.714;23.860;2022-11-15T01:38:57;34.38;;;17.00;;
42598;SDS011;28225;42.714;23.860;2022-11-15T01:41:24;23.50;;;13.52;;
42598;SDS011;28225;42.714;23.860;2022-11-15T01:43:52;28.33;;;14.07;;
42598;SDS011;28225;42.714;23.860;2022-11-15T01:46:27;33.65;;;17.08;;
42598;SDS011;28225;42.714;23.860;2022-11-15T01:48:54;29.15;;;14.60;;
42598;SDS011;28225;42.714;23.860;2022-11-15T01:51:23;17.92;;;12.38;;
42598;SDS011;28225;42.714;23.860;2022-11-15T01:53:51;27.75;;;13.82;;
42598;SDS011;28225;42.714;23.860;2022-11-15T01:56:23;26.13;;;13.45;;
42598;SDS011;28225;42.714;23.860;2022-11-15T01:58:51;22.90;;;11.27;;
42598;SDS011;28225;42.714;23.860;2022-11-15T02:01:18;20.02;;;11.48;;
42598;SDS011;28225;42.714;23.860;2022-11-15T02:03:46;15.77;;;10.65;;
42598;SDS011;28225;42.714;23.860;2022-11-15T02:06:15;17.80;;;9.57;;
42598;SDS011;28225;42.714;23.860;2022-11-15T02:08:40;15.55;;;10.13;;
42598;SDS011;28225;42.714;23.860;2022-11-15T02:11:09;30.33;;;13.02;;
42598;SDS011;28225;42.714;23.860;2022-11-15T02:13:35;34.70;;;16.55;;
42598;SDS011;28225;42.714;23.860;2022-11-15T02:16:05;26.60;;;14.77;;
42598;SDS011;28225;42.714;23.860;2022-11-15T02:19:34;44.83;;;10.30;;
42598;SDS011;28225;42.714;23.860;2022-11-15T02:32:03;26.25;;;10.98;;
42598;SDS011;28225;42.714;23.860;2022-11-15T02:42:26;36.25;;;16.10;;
42598;SDS011;28225;42.714;23.860;2022-11-15T02:45:13;32.28;;;15.20;;
42598;SDS011;28225;42.714;23.860;2022-11-15T02:47:43;68.72;;;16.35;;
42598;SDS011;28225;42.714;23.860;2022-11-15T02:50:15;49.40;;;14.00;;
42598;SDS011;28225;42.714;23.860;2022-11-15T02:52:45;43.83;;;13.88;;
42598;SDS011;28225;42.714;23.860;2022-11-15T02:58:02;41.58;;;13.25;;
42598;SDS011;28225;42.714;23.860;2022-11-15T03:06:36;38.40;;;13.23;;
42598;SDS011;28225;42.714;23.860;2022-11-15T03:11:38;58.13;;;17.00;;
42598;SDS011;28225;42.714;23.860;2022-11-15T03:21:52;100.23;;;22.70;;
42598;SDS011;28225;42.714;23.860;2022-11-15T03:24:18;73.07;;;19.95;;
42598;SDS011;28225;42.714;23.860;2022-11-15T03:26:45;94.75;;;21.83;;
42598;SDS011;28225;42.714;23.860;2022-11-15T03:29:15;73.32;;;21.38;;
42598;SDS011;28225;42.714;23.860;2022-11-15T03:31:44;70.97;;;23.75;;
42598;SDS011;28225;42.714;23.860;2022-11-15T03:34:34;109.68;;;21.80;;
42598;SDS011;28225;42.714;23.860;2022-11-15T03:37:03;90.95;;;18.50;;
42598;SDS011;28225;42.714;23.860;2022-11-15T03:39:29;65.43;;;18.05;;
42598;SDS011;28225;42.714;23.860;2022-11-15T03:47:17;89.35;;;17.65;;
42598;SDS011;28225;42.714;23.860;2022-11-15T03:49:49;93.30;;;18.73;;
42598;SDS011;28225;42.714;23.860;2022-11-15T03:52:18;94.13;;;18.33;;
42598;SDS011;28225;42.714;23.860;2022-11-15T03:54:48;37.38;;;14.45;;
42598;SDS011;28225;42.714;23.860;2022-11-15T03:57:15;82.70;;;17.48;;
42598;SDS011;28225;42.714;23.860;2022-11-15T03:59:40;95.00;;;19.23;;
42598;SDS011;28225;42.714;23.860;2022-11-15T04:02:06;104.05;;;21.33;;
42598;SDS011;28225;42.714;23.860;2022-11-15T04:04:31;88.63;;;21.05;;
42598;SDS011;28225;42.714;23.860;2022-11-15T04:06:57;97.15;;;21.23;;
42598;SDS011;28225;42.714;23.860;2022-11-15T04:09:22;97.32;;;17.52;;
42598;SDS011;28225;42.714;23.860;2022-11-15T04:11:48;56.28;;;16.65;;
42598;SDS011;28225;42.714;23.860;2022-11-15T04:14:13;50.55;;;13.40;;
42598;SDS011;28225;42.714;23.860;2022-11-15T04:16:38;109.28;;;17.17;;
42598;SDS011;28225;42.714;23.860;2022-11-15T04:19:04;54.45;;;13.80;;
42598;SDS011;28225;42.714;23.860;2022-11-15T04:21:48;67.72;;;15.10;;
42598;SDS011;28225;42.714;23.860;2022-11-15T04:24:32;57.72;;;16.42;;
42598;SDS011;28225;42.714;23.860;2022-11-15T04:26:57;55.55;;;15.65;;
42598;SDS011;28225;42.714;23.860;2022-11-15T04:29:23;39.72;;;15.13;;
42598;SDS011;28225;42.714;23.860;2022-11-15T04:32:04;75.82;;;16.08;;
42598;SDS011;28225;42.714;23.860;2022-11-15T04:34:31;42.47;;;14.52;;
42598;SDS011;28225;42.714;23.860;2022-11-15T04:36:56;50.97;;;13.63;;
42598;SDS011;28225;42.714;23.860;2022-11-15T04:39:37;47.55;;;13.35;;
42598;SDS011;28225;42.714;23.860;2022-11-15T04:42:03;34.60;;;13.43;;
42598;SDS011;28225;42.714;23.860;2022-11-15T04:44:28;52.85;;;12.57;;
42598;SDS011;28225;42.714;23.860;2022-11-15T04:46:54;50.72;;;14.05;;
42598;SDS011;28225;42.714;23.860;2022-11-15T04:49:19;62.35;;;15.27;;
42598;SDS011;28225;42.714;23.860;2022-11-15T04:51:45;78.38;;;14.77;;
42598;SDS011;28225;42.714;23.860;2022-11-15T04:54:10;67.18;;;12.43;;
42598;SDS011;28225;42.714;23.860;2022-11-15T04:56:36;64.93;;;13.85;;
42598;SDS011;28225;42.714;23.860;2022-11-15T04:59:01;46.78;;;13.50;;
42598;SDS011;28225;42.714;23.860;2022-11-15T05:01:27;86.43;;;13.15;;
42598;SDS011;28225;42.714;23.860;2022-11-15T05:03:52;43.83;;;13.23;;
42598;SDS011;28225;42.714;23.860;2022-11-15T05:06:36;56.65;;;13.98;;
42598;SDS011;28225;42.714;23.860;2022-11-15T05:09:02;36.15;;;12.68;;
42598;SDS011;28225;42.714;23.860;2022-11-15T05:11:28;54.75;;;13.73;;
42598;SDS011;28225;42.714;23.860;2022-11-15T05:13:54;36.35;;;14.45;;
42598;SDS011;28225;42.714;23.860;2022-11-15T05:16:19;35.47;;;14.85;;
42598;SDS011;28225;42.714;23.860;2022-11-15T05:18:45;38.03;;;11.82;;
42598;SDS011;28225;42.714;23.860;2022-11-15T05:21:11;56.92;;;12.55;;
42598;SDS011;28225;42.714;23.860;2022-11-15T05:23:38;42.92;;;12.73;;
42598;SDS011;28225;42.714;23.860;2022-11-15T05:26:04;28.35;;;12.40;;
42598;SDS011;28225;42.714;23.860;2022-11-15T05:28:31;65.70;;;14.00;;
42598;SDS011;28225;42.714;23.860;2022-11-15T05:31:01;69.75;;;25.33;;
42598;SDS011;28225;42.714;23.860;2022-11-15T05:33:30;61.67;;;22.05;;
42598;SDS011;28225;42.714;23.860;2022-11-15T05:35:58;44.65;;;17.95;;
42598;SDS011;28225;42.714;23.860;2022-11-15T05:38:26;37.90;;;14.95;;
42598;SDS011;28225;42.714;23.860;2022-11-15T05:40:51;63.95;;;14.85;;
42598;SDS011;28225;42.714;23.860;2022-11-15T05:43:17;42.83;;;15.65;;
42598;SDS011;28225;42.714;23.860;2022-11-15T05:45:42;54.35;;;13.35;;
42598;SDS011;28225;42.714;23.860;2022-11-15T05:48:08;38.45;;;11.70;;
42598;SDS011;28225;42.714;23.860;2022-11-15T05:50:35;30.17;;;11.32;;
42598;SDS011;28225;42.714;23.860;2022-11-15T05:53:04;58.67;;;11.30;;
42598;SDS011;28225;42.714;23.860;2022-11-15T05:55:30;43.20;;;9.98;;
42598;SDS011;28225;42.714;23.860;2022-11-15T05:57:56;43.80;;;10.10;;
42598;SDS011;28225;42.714;23.860;2022-11-15T06:00:22;42.60;;;10.32;;
42598;SDS011;28225;42.714;23.860;2022-11-15T06:02:47;35.50;;;9.18;;
42598;SDS011;28225;42.714;23.860;2022-11-15T06:05:13;50.28;;;8.77;;
42598;SDS011;28225;42.714;23.860;2022-11-15T06:07:38;39.45;;;8.70;;
42598;SDS011;28225;42.714;23.860;2022-11-15T06:10:04;67.72;;;20.63;;
42598;SDS011;28225;42.714;23.860;2022-11-15T06:12:30;38.35;;;15.63;;
42598;SDS011;28225;42.714;23.860;2022-11-15T06:14:55;32.70;;;10.63;;
42598;SDS011;28225;42.714;23.860;2022-11-15T06:17:20;31.85;;;8.43;;
42598;SDS011;28225;42.714;23.860;2022-11-15T06:19:46;24.85;;;7.22;;
42598;SDS011;28225;42.714;23.860;2022-11-15T06:22:11;36.58;;;8.25;;
42598;SDS011;28225;42.714;23.860;2022-11-15T06:24:37;30.25;;;7.93;;
42598;SDS011;28225;42.714;23.860;2022-11-15T06:27:02;14.82;;;7.78;;
42598;SDS011;28225;42.714;23.860;2022-11-15T06:29:28;37.33;;;8.77;;
42598;SDS011;28225;42.714;23.860;2022-11-15T06:31:53;26.73;;;11.15;;
42598;SDS011;28225;42.714;23.860;2022-11-15T06:34:19;32.30;;;9.52;;
42598;SDS011;28225;42.714;23.860;2022-11-15T06:36:44;17.30;;;7.78;;
42598;SDS011;28225;42.714;23.860;2022-11-15T06:39:10;23.67;;;7.32;;
42598;SDS011;28225;42.714;23.860;2022-11-15T06:41:35;14.80;;;9.05;;
42598;SDS011;28225;42.714;23.860;2022-11-15T06:44:01;22.02;;;7.65;;
42598;SDS011;28225;42.714;23.860;2022-11-15T06:46:27;16.30;;;7.57;;
42598;SDS011;28225;42.714;23.860;2022-11-15T06:48:52;14.52;;;8.35;;
42598;SDS011;28225;42.714;23.860;2022-11-15T06:51:18;19.65;;;7.35;;
42598;SDS011;28225;42.714;23.860;2022-11-15T06:53:44;14.43;;;8.57;;
42598;SDS011;28225;42.714;23.860;2022-11-15T06:56:10;10.20;;;7.82;;
42598;SDS011;28225;42.714;23.860;2022-11-15T06:58:35;11.45;;;6.93;;
42598;SDS011;28225;42.714;23.860;2022-11-15T07:01:02;11.10;;;7.35;;
42598;SDS011;28225;42.714;23.860;2022-11-15T07:03:29;10.60;;;6.82;;
42598;SDS011;28225;42.714;23.860;2022-11-15T07:05:55;13.45;;;7.82;;
42598;SDS011;28225;42.714;23.860;2022-11-15T07:08:21;10.60;;;7.68;;
42598;SDS011;28225;42.714;23.860;2022-11-15T07:10:48;15.07;;;9.57;;
42598;SDS011;28225;42.714;23.860;2022-11-15T07:13:13;17.45;;;9.90;;
42598;SDS011;28225;42.714;23.860;2022-11-15T07:15:39;15.98;;;8.88;;
42598;SDS011;28225;42.714;23.860;2022-11-15T07:18:04;17.13;;;10.15;;
42598;SDS011;28225;42.714;23.860;2022-11-15T07:20:30;23.00;;;12.13;;
42598;SDS011;28225;42.714;23.860;2022-11-15T07:23:02;18.50;;;11.02;;
42598;SDS011;28225;42.714;23.860;2022-11-15T07:25:28;16.65;;;10.68;;
42598;SDS011;28225;42.714;23.860;2022-11-15T07:27:57;23.67;;;11.85;;
42598;SDS011;28225;42.714;23.860;2022-11-15T07:30:24;19.27;;;11.25;;
42598;SDS011;28225;42.714;23.860;2022-11-15T07:32:53;16.95;;;10.90;;
42598;SDS011;28225;42.714;23.860;2022-11-15T07:35:23;20.80;;;10.60;;
42598;SDS011;28225;42.714;23.860;2022-11-15T07:38:07;15.07;;;9.75;;
42598;SDS011;28225;42.714;23.860;2022-11-15T07:40:32;19.15;;;11.73;;
42598;SDS011;28225;42.714;23.860;2022-11-15T07:45:26;18.88;;;9.93;;
42598;SDS011;28225;42.714;23.860;2022-11-15T07:47:52;18.50;;;10.82;;
42598;SDS011;28225;42.714;23.860;2022-11-15T07:50:17;22.80;;;11.10;;
42598;SDS011;28225;42.714;23.860;2022-11-15T07:52:44;18.02;;;10.52;;
42598;SDS011;28225;42.714;23.860;2022-11-15T07:55:10;18.58;;;10.23;;
42598;SDS011;28225;42.714;23.860;2022-11-15T07:57:36;26.65;;;12.75;;
42598;SDS011;28225;42.714;23.860;2022-11-15T08:00:02;17.92;;;11.98;;
42598;SDS011;28225;42.714;23.860;2022-11-15T08:04:56;32.97;;;20.25;;
42598;SDS011;28225;42.714;23.860;2022-11-15T08:07:21;45.70;;;25.92;;
42598;SDS011;28225;42.714;23.860;2022-11-15T08:09:47;29.80;;;17.45;;
42598;SDS011;28225;42.714;23.860;2022-11-15T08:12:12;22.25;;;14.13;;
42598;SDS011;28225;42.714;23.860;2022-11-15T08:14:38;17.50;;;9.90;;
42598;SDS011;28225;42.714;23.860;2022-11-15T08:17:03;16.13;;;10.90;;
42598;SDS011;28225;42.714;23.860;2022-11-15T08:19:29;19.38;;;9.57;;
42598;SDS011;28225;42.714;23.860;2022-11-15T08:21:54;20.02;;;12.35;;
42598;SDS011;28225;42.714;23.860;2022-11-15T08:24:20;14.85;;;8.52;;
42598;SDS011;28225;42.714;23.860;2022-11-15T08:26:45;26.63;;;15.15;;
42598;SDS011;28225;42.714;23.860;2022-11-15T08:29:11;19.13;;;12.43;;
42598;SDS011;28225;42.714;23.860;2022-11-15T08:31:36;14.60;;;9.38;;
42598;SDS011;28225;42.714;23.860;2022-11-15T08:34:02;16.48;;;10.15;;
42598;SDS011;28225;42.714;23.860;2022-11-15T08:36:28;17.42;;;13.43;;
42598;SDS011;28225;42.714;23.860;2022-11-15T08:38:54;17.20;;;11.98;;
42598;SDS011;28225;42.714;23.860;2022-11-15T08:41:24;11.82;;;8.00;;
42598;SDS011;28225;42.714;23.860;2022-11-15T08:43:52;13.60;;;9.13;;
42598;SDS011;28225;42.714;23.860;2022-11-15T08:46:17;14.02;;;9.20;;
42598;SDS011;28225;42.714;23.860;2022-11-15T08:48:44;10.57;;;7.88;;
42598;SDS011;28225;42.714;23.860;2022-11-15T08:51:09;10.95;;;8.32;;
42598;SDS011;28225;42.714;23.860;2022-11-15T08:53:36;10.38;;;8.27;;
42598;SDS011;28225;42.714;23.860;2022-11-15T08:56:02;8.77;;;6.78;;
42598;SDS011;28225;42.714;23.860;2022-11-15T08:58:28;10.77;;;7.80;;
42598;SDS011;28225;42.714;23.860;2022-11-15T09:00:53;16.33;;;10.52;;
42598;SDS011;28225;42.714;23.860;2022-11-15T09:03:19;12.55;;;8.27;;
42598;SDS011;28225;42.714;23.860;2022-11-15T09:05:44;8.02;;;6.63;;
42598;SDS011;28225;42.714;23.860;2022-11-15T09:08:10;8.27;;;5.80;;
42598;SDS011;28225;42.714;23.860;2022-11-15T09:10:37;8.75;;;6.45;;
42598;SDS011;28225;42.714;23.860;2022-11-15T09:13:03;7.32;;;5.85;;
42598;SDS011;28225;42.714;23.860;2022-11-15T09:15:28;8.10;;;6.43;;
42598;SDS011;28225;42.714;23.860;2022-11-15T09:17:54;8.60;;;7.05;;
42598;SDS011;28225;42.714;23.860;2022-11-15T09:22:48;8.23;;;6.47;;
42598;SDS011;28225;42.714;23.860;2022-11-15T09:25:15;8.00;;;6.47;;
42598;SDS011;28225;42.714;23.860;2022-11-15T09:27:42;10.05;;;6.07;;
42598;SDS011;28225;42.714;23.860;2022-11-15T09:30:08;14.38;;;7.45;;
42598;SDS011;28225;42.714;23.860;2022-11-15T09:32:34;11.05;;;7.13;;
42598;SDS011;28225;42.714;23.860;2022-11-15T09:35:00;9.48;;;7.15;;
42598;SDS011;28225;42.714;23.860;2022-11-15T09:37:26;13.23;;;8.50;;
42598;SDS011;28225;42.714;23.860;2022-11-15T09:39:52;11.23;;;7.53;;
42598;SDS011;28225;42.714;23.860;2022-11-15T09:50:42;11.77;;;8.50;;
42598;SDS011;28225;42.714;23.860;2022-11-15T09:53:14;9.00;;;7.47;;
42598;SDS011;28225;42.714;23.860;2022-11-15T09:56:01;11.43;;;8.95;;
42598;SDS011;28225;42.714;23.860;2022-11-15T09:58:39;7.63;;;6.28;;
42598;SDS011;28225;42.714;23.860;2022-11-15T10:01:14;9.88;;;6.97;;
42598;SDS011;28225;42.714;23.860;2022-11-15T10:03:42;13.68;;;7.10;;
42598;SDS011;28225;42.714;23.860;2022-11-15T10:06:15;8.40;;;6.50;;
42598;SDS011;28225;42.714;23.860;2022-11-15T10:08:50;8.40;;;7.20;;
42598;SDS011;28225;42.714;23.860;2022-11-15T10:11:35;8.15;;;7.10;;
42598;SDS011;28225;42.714;23.860;2022-11-15T10:14:09;8.57;;;7.10;;
42598;SDS011;28225;42.714;23.860;2022-11-15T10:19:23;8.43;;;6.90;;
42598;SDS011;28225;42.714;23.860;2022-11-15T10:24:34;10.57;;;8.13;;
42598;SDS011;28225;42.714;23.860;2022-11-15T10:27:00;10.20;;;7.90;;
42598;SDS011;28225;42.714;23.860;2022-11-15T10:29:26;11.20;;;7.85;;
42598;SDS011;28225;42.714;23.860;2022-11-15T10:31:51;9.45;;;7.78;;
42598;SDS011;28225;42.714;23.860;2022-11-15T10:34:21;9.07;;;7.13;;
42598;SDS011;28225;42.714;23.860;2022-11-15T10:37:00;14.05;;;11.20;;
42598;SDS011;28225;42.714;23.860;2022-11-15T10:39:28;10.05;;;8.20;;
42598;SDS011;28225;42.714;23.860;2022-11-15T10:41:54;7.63;;;6.68;;
42598;SDS011;28225;42.714;23.860;2022-11-15T10:44:21;8.88;;;6.57;;
42598;SDS011;28225;42.714;23.860;2022-11-15T10:49:22;9.13;;;6.68;;
42598;SDS011;28225;42.714;23.860;2022-11-15T10:51:54;7.70;;;6.90;;
42598;SDS011;28225;42.714;23.860;2022-11-15T10:54:27;7.88;;;6.85;;
42598;SDS011;28225;42.714;23.860;2022-11-15T10:56:59;10.23;;;8.55;;
42598;SDS011;28225;42.714;23.860;2022-11-15T10:59:30;8.18;;;7.28;;
42598;SDS011;28225;42.714;23.860;2022-11-15T11:01:57;8.30;;;7.15;;
42598;SDS011;28225;42.714;23.860;2022-11-15T11:04:23;10.43;;;7.40;;
42598;SDS011;28225;42.714;23.860;2022-11-15T11:06:55;8.27;;;7.18;;
42598;SDS011;28225;42.714;23.860;2022-11-15T11:11:50;9.10;;;7.97;;
42598;SDS011;28225;42.714;23.860;2022-11-15T11:14:24;9.85;;;8.40;;
42598;SDS011;28225;42.714;23.860;2022-11-15T11:25:21;11.45;;;8.02;;
42598;SDS011;28225;42.714;23.860;2022-11-15T11:28:25;10.40;;;8.15;;
42598;SDS011;28225;42.714;23.860;2022-11-15T11:34:13;11.65;;;9.07;;
42598;SDS011;28225;42.714;23.860;2022-11-15T11:37:03;10.80;;;8.32;;
42598;SDS011;28225;42.714;23.860;2022-11-15T11:39:51;12.90;;;8.35;;
42598;SDS011;28225;42.714;23.860;2022-11-15T11:42:52;11.25;;;9.05;;
42598;SDS011;28225;42.714;23.860;2022-11-15T11:50:38;10.57;;;8.48;;
42598;SDS011;28225;42.714;23.860;2022-11-15T12:00:49;9.60;;;7.85;;
42598;SDS011;28225;42.714;23.860;2022-11-15T12:03:28;10.95;;;8.52;;
42598;SDS011;28225;42.714;23.860;2022-11-15T12:06:00;11.60;;;9.02;;
42598;SDS011;28225;42.714;23.860;2022-11-15T12:11:29;14.47;;;10.37;;
42598;SDS011;28225;42.714;23.860;2022-11-15T12:13:56;13.52;;;8.55;;
42598;SDS011;28225;42.714;23.860;2022-11-15T12:16:26;9.43;;;7.28;;
42598;SDS011;28225;42.714;23.860;2022-11-15T12:18:53;10.50;;;8.35;;
42598;SDS011;28225;42.714;23.860;2022-11-15T12:24:19;11.13;;;8.30;;
42598;SDS011;28225;42.714;23.860;2022-11-15T12:29:45;10.63;;;8.60;;
42598;SDS011;28225;42.714;23.860;2022-11-15T12:32:18;12.23;;;8.60;;
42598;SDS011;28225;42.714;23.860;2022-11-15T12:34:59;11.18;;;8.55;;
42598;SDS011;28225;42.714;23.860;2022-11-15T12:42:42;10.63;;;8.40;;
42598;SDS011;28225;42.714;23.860;2022-11-15T13:01:09;12.40;;;8.48;;
42598;SDS011;28225;42.714;23.860;2022-11-15T13:03:35;12.98;;;9.70;;
42598;SDS011;28225;42.714;23.860;2022-11-15T13:06:02;15.07;;;9.40;;
42598;SDS011;28225;42.714;23.860;2022-11-15T13:08:43;11.03;;;8.93;;
42598;SDS011;28225;42.714;23.860;2022-11-15T13:17:25;10.75;;;7.75;;
42598;SDS011;28225;42.714;23.860;2022-11-15T13:19:53;12.48;;;9.20;;
42598;SDS011;28225;42.714;23.860;2022-11-15T13:22:20;12.55;;;9.23;;
42598;SDS011;28225;42.714;23.860;2022-11-15T13:25:11;12.52;;;8.95;;
42598;SDS011;28225;42.714;23.860;2022-11-15T13:27:40;14.57;;;9.48;;
42598;SDS011;28225;42.714;23.860;2022-11-15T13:30:23;12.52;;;8.57;;
42598;SDS011;28225;42.714;23.860;2022-11-15T13:32:50;14.75;;;10.02;;
42598;SDS011;28225;42.714;23.860;2022-11-15T13:35:28;13.85;;;9.88;;
42598;SDS011;28225;42.714;23.860;2022-11-15T13:37:54;12.43;;;9.25;;
42598;SDS011;28225;42.714;23.860;2022-11-15T13:40:22;12.07;;;8.77;;
42598;SDS011;28225;42.714;23.860;2022-11-15T13:42:58;10.40;;;8.07;;
42598;SDS011;28225;42.714;23.860;2022-11-15T13:45:23;13.23;;;9.18;;
42598;SDS011;28225;42.714;23.860;2022-11-15T13:47:56;13.10;;;9.05;;
42598;SDS011;28225;42.714;23.860;2022-11-15T13:50:29;12.55;;;9.15;;
42598;SDS011;28225;42.714;23.860;2022-11-15T13:52:57;14.23;;;9.30;;
42598;SDS011;28225;42.714;23.860;2022-11-15T13:55:24;11.85;;;9.05;;
42598;SDS011;28225;42.714;23.860;2022-11-15T13:57:51;15.07;;;8.77;;
42598;SDS011;28225;42.714;23.860;2022-11-15T14:00:38;16.80;;;10.55;;
42598;SDS011;28225;42.714;23.860;2022-11-15T14:03:17;13.63;;;10.45;;
42598;SDS011;28225;42.714;23.860;2022-11-15T14:06:01;16.00;;;10.38;;
42598;SDS011;28225;42.714;23.860;2022-11-15T14:08:31;19.35;;;12.07;;
42598;SDS011;28225;42.714;23.860;2022-11-15T14:11:07;19.63;;;14.25;;
42598;SDS011;28225;42.714;23.860;2022-11-15T14:13:36;19.08;;;13.45;;
42598;SDS011;28225;42.714;23.860;2022-11-15T14:16:21;22.17;;;13.38;;
42598;SDS011;28225;42.714;23.860;2022-11-15T14:18:47;16.98;;;12.63;;
42598;SDS011;28225;42.714;23.860;2022-11-15T14:21:17;18.52;;;11.93;;
42598;SDS011;28225;42.714;23.860;2022-11-15T14:23:44;16.75;;;10.60;;
42598;SDS011;28225;42.714;23.860;2022-11-15T14:26:26;18.08;;;10.93;;
42598;SDS011;28225;42.714;23.860;2022-11-15T14:28:54;20.20;;;11.23;;
42598;SDS011;28225;42.714;23.860;2022-11-15T14:31:20;19.77;;;10.95;;
42598;SDS011;28225;42.714;23.860;2022-11-15T14:33:46;21.98;;;11.57;;
42598;SDS011;28225;42.714;23.860;2022-11-15T14:36:12;14.77;;;9.20;;
42598;SDS011;28225;42.714;23.860;2022-11-15T14:38:42;13.75;;;10.00;;
42598;SDS011;28225;42.714;23.860;2022-11-15T14:41:11;17.38;;;11.52;;
42598;SDS011;28225;42.714;23.860;2022-11-15T14:43:49;14.70;;;10.68;;
42598;SDS011;28225;42.714;23.860;2022-11-15T14:46:15;17.05;;;11.27;;
42598;SDS011;28225;42.714;23.860;2022-11-15T14:48:41;20.55;;;12.25;;
42598;SDS011;28225;42.714;23.860;2022-11-15T14:51:13;21.48;;;12.02;;
42598;SDS011;28225;42.714;23.860;2022-11-15T14:53:40;22.63;;;13.60;;
42598;SDS011;28225;42.714;23.860;2022-11-15T14:56:06;22.38;;;15.25;;
42598;SDS011;28225;42.714;23.860;2022-11-15T14:58:32;33.53;;;17.33;;
42598;SDS011;28225;42.714;23.860;2022-11-15T15:00:58;28.73;;;18.85;;
42598;SDS011;28225;42.714;23.860;2022-11-15T15:03:23;23.30;;;15.82;;
42598;SDS011;28225;42.714;23.860;2022-11-15T15:05:49;25.80;;;16.73;;
42598;SDS011;28225;42.714;23.860;2022-11-15T15:08:14;25.50;;;15.70;;
42598;SDS011;28225;42.714;23.860;2022-11-15T15:10:43;27.20;;;17.58;;
42598;SDS011;28225;42.714;23.860;2022-11-15T15:13:42;24.65;;;15.55;;
42598;SDS011;28225;42.714;23.860;2022-11-15T15:16:01;31.25;;;19.67;;
42598;SDS011;28225;42.714;23.860;2022-11-15T15:18:26;29.55;;;17.65;;
42598;SDS011;28225;42.714;23.860;2022-11-15T15:20:56;23.25;;;15.68;;
42598;SDS011;28225;42.714;23.860;2022-11-15T15:23:24;27.88;;;16.88;;
42598;SDS011;28225;42.714;23.860;2022-11-15T15:28:19;22.70;;;14.63;;
42598;SDS011;28225;42.714;23.860;2022-11-15T15:30:45;23.30;;;14.05;;
42598;SDS011;28225;42.714;23.860;2022-11-15T15:33:10;27.63;;;16.40;;
42598;SDS011;28225;42.714;23.860;2022-11-15T15:35:35;21.75;;;13.82;;
42598;SDS011;28225;42.714;23.860;2022-11-15T15:38:01;21.70;;;13.88;;
42598;SDS011;28225;42.714;23.860;2022-11-15T15:40:29;20.35;;;13.43;;
42598;SDS011;28225;42.714;23.860;2022-11-15T15:42:56;19.48;;;12.60;;
42598;SDS011;28225;42.714;23.860;2022-11-15T15:45:21;24.00;;;14.48;;
42598;SDS011;28225;42.714;23.860;2022-11-15T15:47:47;22.75;;;14.48;;
42598;SDS011;28225;42.714;23.860;2022-11-15T15:50:18;32.40;;;18.17;;
42598;SDS011;28225;42.714;23.860;2022-11-15T15:52:48;33.92;;;20.55;;
42598;SDS011;28225;42.714;23.860;2022-11-15T15:55:15;31.15;;;20.23;;
42598;SDS011;28225;42.714;23.860;2022-11-15T15:57:40;37.33;;;24.50;;
42598;SDS011;28225;42.714;23.860;2022-11-15T16:00:06;42.28;;;25.48;;
42598;SDS011;28225;42.714;23.860;2022-11-15T16:02:32;37.40;;;24.20;;
42598;SDS011;28225;42.714;23.860;2022-11-15T16:04:57;42.40;;;26.55;;
42598;SDS011;28225;42.714;23.860;2022-11-15T16:07:23;29.13;;;17.33;;
42598;SDS011;28225;42.714;23.860;2022-11-15T16:09:49;26.83;;;16.83;;
42598;SDS011;28225;42.714;23.860;2022-11-15T16:14:53;27.48;;;14.60;;
42598;SDS011;28225;42.714;23.860;2022-11-15T16:17:30;25.63;;;15.82;;
42598;SDS011;28225;42.714;23.860;2022-11-15T16:19:58;38.38;;;18.35;;
42598;SDS011;28225;42.714;23.860;2022-11-15T16:22:24;34.35;;;16.38;;
42598;SDS011;28225;42.714;23.860;2022-11-15T16:24:49;22.70;;;14.77;;
42598;SDS011;28225;42.714;23.860;2022-11-15T16:27:15;28.55;;;17.05;;
42598;SDS011;28225;42.714;23.860;2022-11-15T16:29:43;19.85;;;13.38;;
42598;SDS011;28225;42.714;23.860;2022-11-15T16:32:08;22.13;;;13.38;;
42598;SDS011;28225;42.714;23.860;2022-11-15T16:34:34;20.65;;;14.40;;
42598;SDS011;28225;42.714;23.860;2022-11-15T16:36:59;21.88;;;14.00;;